createdAt,value
2018-03-08T00:01:15.234Z,59.72
2018-03-08T00:03:43.919Z,60.75
2018-03-08T00:06:12.607Z,60.16
2018-03-08T00:08:41.273Z,60.33
2018-03-08T00:11:10.265Z,59.06
2018-03-08T00:13:38.907Z,58.25
2018-03-08T00:16:08.220Z,60.90
2018-03-08T00:18:37.263Z,60.91
2018-03-08T00:21:05.950Z,59.65
2018-03-08T00:23:34.637Z,60.30
2018-03-08T00:26:03.325Z,58.93
2018-03-08T00:28:32.008Z,60.59
2018-03-08T00:31:00.633Z,58.71
2018-03-08T00:33:30.296Z,61.12
2018-03-08T00:35:58.986Z,56.89
2018-03-08T00:38:27.612Z,59.41
2018-03-08T00:40:58.254Z,57.76
2018-03-08T00:43:26.847Z,59.27
2018-03-08T00:45:55.573Z,56.42
2018-03-08T00:48:24.308Z,58.15
2018-03-08T00:50:53.766Z,57.53
2018-03-08T00:53:22.452Z,58.48
2018-03-08T00:55:51.189Z,56.30
2018-03-08T00:58:20.636Z,56.87
2018-03-08T01:00:49.224Z,58.60
2018-03-08T01:03:18.316Z,58.15
2018-03-08T01:05:46.959Z,60.31
2018-03-08T01:08:15.687Z,64.24
2018-03-08T01:10:44.420Z,64.01
2018-03-08T01:13:13.837Z,65.37
2018-03-08T01:15:42.569Z,64.69
2018-03-08T01:18:11.297Z,63.73
2018-03-08T01:20:40.763Z,61.01
2018-03-08T01:23:09.312Z,62.71
2018-03-08T01:25:38.025Z,59.90
2018-03-08T01:28:06.667Z,61.32
2018-03-08T01:30:35.361Z,61.83
2018-03-08T01:33:04.081Z,59.36
2018-03-08T01:35:32.722Z,58.04
2018-03-08T01:38:01.355Z,59.27
2018-03-08T01:40:30.138Z,59.49
2018-03-08T01:42:58.728Z,60.20
2018-03-08T01:45:27.418Z,60.66
2018-03-08T01:47:56.097Z,62.17
2018-03-08T01:50:24.785Z,58.41
2018-03-08T01:52:53.471Z,56.89
2018-03-08T01:55:22.439Z,56.17
2018-03-08T01:57:51.150Z,56.89
2018-03-08T02:00:19.775Z,56.98
2018-03-08T02:02:49.442Z,55.98
2018-03-08T02:05:18.085Z,56.33
2018-03-08T02:07:46.716Z,56.49
2018-03-08T02:10:15.400Z,55.87
2018-03-08T02:12:44.086Z,55.22
2018-03-08T02:15:12.664Z,56.03
2018-03-08T02:17:41.348Z,57.69
2018-03-08T02:20:09.996Z,58.28
2018-03-08T02:22:38.719Z,57.93
2018-03-08T02:25:07.706Z,58.80
2018-03-08T02:27:36.399Z,57.88
2018-03-08T02:30:05.197Z,58.83
2018-03-08T02:32:34.168Z,58.05
2018-03-08T02:35:02.874Z,56.86
2018-03-08T02:37:31.449Z,56.11
2018-03-08T02:40:00.135Z,55.27
2018-03-08T02:42:28.822Z,55.78
2018-03-08T02:44:57.476Z,56.04
2018-03-08T02:47:26.806Z,55.93
2018-03-08T02:49:55.463Z,55.27
2018-03-08T02:52:24.186Z,55.26
2018-03-08T02:54:53.282Z,54.73
2018-03-08T02:57:21.857Z,55.58
2018-03-08T02:59:50.544Z,55.92
2018-03-08T03:02:19.727Z,55.36
2018-03-08T03:04:48.432Z,54.51
2018-03-08T03:07:17.018Z,53.30
2018-03-08T03:09:45.817Z,53.93
2018-03-08T03:12:15.970Z,55.68
2018-03-08T03:14:45.631Z,54.88
2018-03-08T03:17:14.417Z,55.36
2018-03-08T03:19:43.048Z,55.54
2018-03-08T03:22:12.566Z,54.26
2018-03-08T03:24:41.298Z,53.53
2018-03-08T03:27:09.987Z,53.53
2018-03-08T03:29:38.769Z,52.64
2018-03-08T03:32:07.453Z,52.65
2018-03-08T03:34:36.106Z,51.67
2018-03-08T03:37:04.919Z,51.76
2018-03-08T03:39:33.615Z,52.14
2018-03-08T03:42:02.257Z,51.75
2018-03-08T03:44:31.952Z,52.47
2018-03-08T03:47:01.413Z,52.36
2018-03-08T03:49:30.099Z,52.80
2018-03-08T03:51:58.892Z,52.22
2018-03-08T03:54:27.579Z,53.49
2018-03-08T03:56:57.186Z,54.21
2018-03-08T03:59:26.761Z,54.12
2018-03-08T04:01:55.399Z,53.17
2018-03-08T04:04:24.850Z,53.77
2018-03-08T04:06:53.889Z,53.39
2018-03-08T04:09:23.349Z,52.51
2018-03-08T04:11:52.034Z,52.53
2018-03-08T04:14:20.917Z,51.57
2018-03-08T04:16:49.561Z,52.30
2018-03-08T04:19:18.290Z,51.54
2018-03-08T04:21:47.246Z,51.79
2018-03-08T04:24:15.968Z,52.19
2018-03-08T04:26:44.517Z,52.26
2018-03-08T04:29:13.549Z,52.43
2018-03-08T04:31:42.193Z,51.19
2018-03-08T04:34:10.921Z,51.42
2018-03-08T04:36:39.655Z,51.38
2018-03-08T04:39:09.113Z,50.67
2018-03-08T04:41:37.736Z,50.51
2018-03-08T04:44:07.259Z,50.50
2018-03-08T04:46:35.984Z,51.30
2018-03-08T04:49:04.570Z,49.93
2018-03-08T04:51:33.512Z,49.47
2018-03-08T04:54:02.864Z,50.60
2018-03-08T04:56:31.498Z,50.48
2018-03-08T04:59:01.049Z,50.40
2018-03-08T05:01:29.744Z,51.97
2018-03-08T05:03:58.325Z,51.30
2018-03-08T05:06:27.115Z,54.66
2018-03-08T05:08:55.693Z,52.23
2018-03-08T05:11:24.379Z,50.71
2018-03-08T05:13:53.173Z,53.04
2018-03-08T05:16:21.813Z,53.99
2018-03-08T05:18:50.546Z,53.39
2018-03-08T05:21:19.148Z,52.78
2018-03-08T05:23:47.930Z,53.41
2018-03-08T05:26:17.416Z,54.67
2018-03-08T05:28:46.101Z,54.95
2018-03-08T05:31:14.787Z,54.17
2018-03-08T05:33:43.471Z,53.67
2018-03-08T05:36:12.256Z,51.06
2018-03-08T05:38:40.953Z,52.09
2018-03-08T05:41:09.639Z,55.80
2018-03-08T05:43:38.424Z,55.61
2018-03-08T05:46:07.110Z,52.65
2018-03-08T05:48:35.700Z,54.32
2018-03-08T05:51:04.373Z,54.06
2018-03-08T05:53:33.070Z,51.24
2018-03-08T05:56:01.854Z,52.01
2018-03-08T05:58:30.541Z,52.42
2018-03-08T06:00:59.189Z,52.72
2018-03-08T06:03:27.914Z,56.20
2018-03-08T06:05:56.904Z,57.45
2018-03-08T06:08:25.544Z,56.12
2018-03-08T06:10:54.276Z,53.97
2018-03-08T06:13:23.270Z,51.47
2018-03-08T06:15:51.956Z,54.06
2018-03-08T06:18:20.642Z,52.29
2018-03-08T06:20:49.325Z,52.50
2018-03-08T06:23:17.913Z,51.16
2018-03-08T06:25:46.599Z,50.08
2018-03-08T06:28:15.385Z,50.85
2018-03-08T06:30:44.133Z,52.49
2018-03-08T06:33:12.823Z,53.94
2018-03-08T06:35:41.816Z,51.91
2018-03-08T06:38:10.533Z,52.01
2018-03-08T06:40:39.219Z,52.08
2018-03-08T06:43:08.014Z,52.01
2018-03-08T06:45:36.700Z,50.75
2018-03-08T06:48:05.377Z,49.81
2018-03-08T06:50:34.224Z,49.24
2018-03-08T06:53:02.761Z,50.47
2018-03-08T06:55:31.332Z,50.18
2018-03-08T06:58:00.032Z,52.07
2018-03-08T07:00:28.706Z,52.00
2018-03-08T07:02:58.588Z,50.91
2018-03-08T07:05:27.174Z,50.86
2018-03-08T07:07:55.821Z,50.43
2018-03-08T07:10:24.593Z,49.16
2018-03-08T07:12:54.045Z,50.07
2018-03-08T07:15:22.679Z,48.71
2018-03-08T07:17:52.545Z,49.01
2018-03-08T07:20:21.132Z,47.76
2018-03-08T07:22:49.818Z,49.55
2018-03-08T07:25:18.702Z,49.46
2018-03-08T07:27:47.388Z,50.36
2018-03-08T07:30:16.037Z,49.51
2018-03-08T07:32:44.904Z,51.72
2018-03-08T07:35:14.369Z,50.17
2018-03-08T07:37:43.053Z,50.59
2018-03-08T07:40:12.009Z,51.24
2018-03-08T07:42:40.732Z,53.55
2018-03-08T07:45:09.418Z,53.49
2018-03-08T07:47:38.412Z,51.27
2018-03-08T07:50:07.096Z,51.02
2018-03-08T07:52:35.749Z,52.02
2018-03-08T07:55:04.513Z,49.79
2018-03-08T07:57:33.978Z,53.00
2018-03-08T08:00:02.681Z,50.03
2018-03-08T08:02:31.396Z,53.67
2018-03-08T08:05:18.712Z,47.57
2018-03-08T08:08:06.051Z,46.41
2018-03-08T08:10:35.500Z,46.80
2018-03-08T08:13:04.081Z,48.33
2018-03-08T08:15:33.177Z,48.94
2018-03-08T08:18:01.997Z,47.87
2018-03-08T08:20:30.649Z,47.08
2018-03-08T08:22:59.587Z,48.05
2018-03-08T08:25:29.052Z,49.63
2018-03-08T08:27:57.617Z,48.58
2018-03-08T08:30:26.412Z,49.43
2018-03-08T08:32:55.208Z,47.18
2018-03-08T08:35:23.895Z,47.25
2018-03-08T08:37:52.679Z,46.87
2018-03-08T08:40:21.364Z,45.54
2018-03-08T08:42:50.051Z,48.11
2018-03-08T08:45:18.846Z,46.25
2018-03-08T08:47:47.531Z,46.02
2018-03-08T08:50:16.217Z,47.50
2018-03-08T08:52:44.903Z,49.10
2018-03-08T08:55:13.588Z,49.05
2018-03-08T08:57:42.374Z,49.31
2018-03-08T09:00:11.517Z,48.10
2018-03-08T09:02:40.924Z,49.01
2018-03-08T09:05:10.373Z,47.96
2018-03-08T09:07:39.431Z,49.41
2018-03-08T09:10:08.099Z,50.41
2018-03-08T09:12:37.561Z,50.16
2018-03-08T09:15:06.653Z,49.98
2018-03-08T09:17:35.201Z,48.70
2018-03-08T09:20:03.875Z,47.86
2018-03-08T09:22:33.364Z,48.16
2018-03-08T09:25:02.834Z,50.59
2018-03-08T09:27:31.519Z,48.67
2018-03-08T09:30:00.610Z,49.83
2018-03-08T09:32:29.297Z,48.67
2018-03-08T09:34:57.960Z,47.71
2018-03-08T09:37:26.721Z,48.13
2018-03-08T09:39:56.177Z,44.78
2018-03-08T09:42:24.863Z,43.93
2018-03-08T09:44:53.805Z,45.37
2018-03-08T09:47:23.254Z,44.08
2018-03-08T09:49:51.890Z,40.59
2018-03-08T09:52:21.755Z,41.11
2018-03-08T09:54:50.442Z,40.78
2018-03-08T09:57:19.021Z,40.09
2018-03-08T09:59:47.912Z,40.91
2018-03-08T10:02:16.598Z,39.13
2018-03-08T10:04:45.190Z,41.36
2018-03-08T10:07:13.870Z,39.75
2018-03-08T10:09:42.558Z,39.53
2018-03-08T10:12:11.138Z,42.23
2018-03-08T10:14:39.929Z,40.10
2018-03-08T10:17:08.615Z,39.21
2018-03-08T10:19:37.257Z,42.95
2018-03-08T10:22:06.250Z,42.62
2018-03-08T10:24:34.980Z,42.89
2018-03-08T10:27:03.669Z,39.97
2018-03-08T10:29:32.679Z,39.37
2018-03-08T10:32:01.344Z,39.42
2018-03-08T10:34:30.043Z,39.38
2018-03-08T10:36:58.814Z,38.53
2018-03-08T10:41:56.701Z,38.85
2018-03-08T10:44:25.792Z,42.38
2018-03-08T10:46:55.269Z,40.01
2018-03-08T10:49:23.923Z,40.00
2018-03-08T10:51:52.915Z,40.13
2018-03-08T10:54:21.635Z,40.85
2018-03-08T10:56:50.221Z,43.98
2018-03-08T10:59:18.920Z,41.78
2018-03-08T11:02:04.385Z,43.01
2018-03-08T11:04:37.070Z,43.90
2018-03-08T11:07:05.759Z,42.83
2018-03-08T11:09:34.338Z,42.96
2018-03-08T11:12:03.064Z,42.37
2018-03-08T11:14:32.527Z,42.92
2018-03-08T11:17:01.216Z,42.62
2018-03-08T11:19:30.304Z,42.39
2018-03-08T11:21:58.957Z,40.60
2018-03-08T11:24:27.676Z,41.49
2018-03-08T11:26:56.361Z,40.77
2018-03-08T11:29:25.048Z,37.05
2018-03-08T11:31:53.733Z,42.95
2018-03-08T11:34:22.727Z,41.92
2018-03-08T11:36:51.412Z,41.07
2018-03-08T11:39:19.968Z,39.17
2018-03-08T11:41:48.951Z,41.06
2018-03-08T11:44:17.679Z,43.75
2018-03-08T11:46:46.364Z,40.47
2018-03-08T11:49:15.149Z,42.54
2018-03-08T11:51:43.834Z,44.21
2018-03-08T11:54:12.467Z,40.89
2018-03-08T11:56:41.985Z,42.12
2018-03-08T11:59:10.715Z,43.71
2018-03-08T12:01:39.608Z,40.69
2018-03-08T12:04:08.339Z,40.65
2018-03-08T12:06:38.204Z,41.02
2018-03-08T12:09:06.895Z,40.97
2018-03-08T12:11:35.681Z,39.63
2018-03-08T12:14:04.366Z,38.64
2018-03-08T12:16:32.947Z,38.56
2018-03-08T12:19:01.629Z,40.31
2018-03-08T12:21:30.324Z,41.00
2018-03-08T12:23:59.009Z,44.08
2018-03-08T12:26:27.852Z,43.97
2018-03-08T12:28:56.579Z,42.93
2018-03-08T12:31:25.213Z,41.76
2018-03-08T12:33:54.681Z,43.72
2018-03-08T12:36:23.228Z,44.12
2018-03-08T12:38:51.937Z,43.22
2018-03-08T12:41:21.852Z,41.85
2018-03-08T12:43:50.442Z,43.15
2018-03-08T12:46:19.119Z,40.44
2018-03-08T12:48:47.926Z,43.14
2018-03-08T12:51:17.358Z,41.24
2018-03-08T12:53:46.817Z,40.39
2018-03-08T12:56:15.668Z,40.23
2018-03-08T12:58:44.398Z,41.91
2018-03-08T13:01:13.083Z,43.44
2018-03-08T13:03:42.817Z,46.48
2018-03-08T13:06:11.584Z,45.99
2018-03-08T13:08:40.308Z,45.60
2018-03-08T13:11:09.970Z,44.85
2018-03-08T13:13:38.662Z,47.50
2018-03-08T13:16:08.134Z,45.54
2018-03-08T13:18:36.864Z,45.90
2018-03-08T13:21:05.549Z,46.14
2018-03-08T13:23:34.191Z,46.92
2018-03-08T13:26:02.985Z,47.50
2018-03-08T13:28:31.606Z,46.33
2018-03-08T13:31:00.194Z,47.60
2018-03-08T13:33:29.078Z,45.95
2018-03-08T13:35:57.732Z,42.32
2018-03-08T13:38:26.449Z,45.32
2018-03-08T13:40:55.651Z,45.25
2018-03-08T13:43:24.337Z,45.91
2018-03-08T13:45:53.078Z,43.86
2018-03-08T13:48:21.717Z,44.44
2018-03-08T13:50:50.439Z,44.79
2018-03-08T13:53:19.902Z,46.21
2018-03-08T13:55:48.876Z,46.17
2018-03-08T13:58:17.430Z,47.05
2018-03-08T14:00:45.980Z,48.36
2018-03-08T14:03:14.592Z,47.26
2018-03-08T14:05:43.183Z,48.03
2018-03-08T14:08:11.746Z,48.66
2018-03-08T14:10:41.109Z,50.33
2018-03-08T14:13:09.662Z,51.54
2018-03-08T14:15:38.233Z,52.44
2018-03-08T14:18:07.266Z,53.57
2018-03-08T14:20:36.582Z,54.39
2018-03-08T14:23:05.156Z,54.07
2018-03-08T14:25:33.937Z,54.64
2018-03-08T14:28:02.493Z,55.67
2018-03-08T14:30:31.105Z,56.89
2018-03-08T14:33:00.209Z,58.09
2018-03-08T14:35:28.890Z,58.53
2018-03-08T14:37:57.576Z,59.70
2018-03-08T14:40:26.261Z,58.64
2018-03-08T14:42:54.946Z,60.56
2018-03-08T14:45:23.634Z,59.69
2018-03-08T14:47:52.327Z,59.08
2018-03-08T14:50:21.104Z,59.68
2018-03-08T14:52:49.653Z,59.42
2018-03-08T14:55:18.564Z,58.74
2018-03-08T14:57:47.112Z,59.27
2018-03-08T15:00:15.666Z,57.66
2018-03-08T15:02:44.364Z,59.86
2018-03-08T15:05:13.685Z,60.11
2018-03-08T15:07:42.248Z,59.52
2018-03-08T15:10:10.954Z,59.40
2018-03-08T15:12:40.393Z,58.81
2018-03-08T15:15:09.091Z,58.64
2018-03-08T15:17:37.788Z,58.46
2018-03-08T15:20:06.561Z,58.15
2018-03-08T15:22:35.248Z,57.92
2018-03-08T15:25:03.940Z,56.46
2018-03-08T15:27:32.521Z,56.71
2018-03-08T15:30:01.207Z,57.86
2018-03-08T15:32:29.991Z,57.36
2018-03-08T15:34:58.680Z,57.27
2018-03-08T15:37:27.361Z,57.38
2018-03-08T15:39:56.098Z,57.63
2018-03-08T15:42:25.558Z,58.39
2018-03-08T15:44:54.243Z,56.04
2018-03-08T15:47:23.244Z,58.05
2018-03-08T15:49:51.898Z,58.27
2018-03-08T15:52:20.597Z,57.46
2018-03-08T15:54:49.393Z,59.21
2018-03-08T15:57:17.969Z,59.05
2018-03-08T15:59:46.655Z,58.37
2018-03-08T16:02:15.757Z,58.97
2018-03-08T16:04:44.308Z,59.79
2018-03-08T16:10:37.002Z,59.53
2018-03-08T16:13:05.897Z,59.97
2018-03-08T16:15:34.582Z,59.91
2018-03-08T16:18:03.136Z,61.08
2018-03-08T16:20:31.959Z,60.81
2018-03-08T16:23:00.640Z,61.11
2018-03-08T16:25:29.325Z,60.11
2018-03-08T16:27:58.108Z,59.94
2018-03-08T16:30:26.652Z,60.42
2018-03-08T16:32:55.201Z,61.20
2018-03-08T16:35:23.938Z,60.23
2018-03-08T16:37:52.545Z,59.96
2018-03-08T16:40:21.089Z,59.73
2018-03-08T16:42:50.076Z,59.24
2018-03-08T16:45:19.525Z,60.10
2018-03-08T16:47:48.210Z,60.89
2018-03-08T16:50:16.997Z,61.08
2018-03-08T16:52:45.544Z,61.80
2018-03-08T16:55:14.093Z,61.17
2018-03-08T16:57:43.482Z,60.92
2018-03-08T17:00:12.200Z,61.15
2018-03-08T17:02:41.513Z,60.63
2018-03-08T17:05:10.226Z,60.29
2018-03-08T17:07:38.796Z,59.63
2018-03-08T17:10:07.427Z,59.49
2018-03-08T17:12:36.540Z,59.97
2018-03-08T17:15:05.212Z,59.93
2018-03-08T17:17:33.942Z,61.29
2018-03-08T17:20:02.837Z,60.97
2018-03-08T17:22:31.524Z,60.99
2018-03-08T17:25:00.222Z,60.99
2018-03-08T17:27:28.997Z,60.76
2018-03-08T17:29:57.679Z,61.06
2018-03-08T17:32:26.331Z,60.17
2018-03-08T17:34:55.200Z,60.58
2018-03-08T17:37:24.663Z,62.28
2018-03-08T17:39:53.344Z,60.88
2018-03-08T17:42:22.208Z,61.94
2018-03-08T17:44:50.872Z,61.42
2018-03-08T17:47:20.326Z,59.24
2018-03-08T17:49:49.309Z,59.44
2018-03-08T17:52:18.000Z,58.07
2018-03-08T17:54:46.687Z,57.73
2018-03-08T17:57:15.636Z,57.61
2018-03-08T17:59:44.366Z,58.42
2018-03-08T18:02:13.765Z,56.42
2018-03-08T18:04:42.518Z,55.60
2018-03-08T18:07:11.247Z,55.46
2018-03-08T18:09:39.934Z,56.12
2018-03-08T18:12:08.926Z,55.23
2018-03-08T18:14:37.611Z,55.53
2018-03-08T18:17:06.297Z,56.53
2018-03-08T18:19:35.081Z,56.30
2018-03-08T18:22:03.768Z,56.78
2018-03-08T18:24:32.409Z,56.96
2018-03-08T18:27:01.348Z,57.11
2018-03-08T18:29:30.131Z,58.10
2018-03-08T18:31:58.716Z,59.17
2018-03-08T18:34:27.781Z,59.40
2018-03-08T18:36:56.497Z,60.21
2018-03-08T18:39:25.182Z,60.66
2018-03-08T18:41:53.977Z,61.38
2018-03-08T18:44:22.550Z,61.75
2018-03-08T18:46:51.097Z,61.74
2018-03-08T18:49:19.693Z,60.35
2018-03-08T18:51:48.244Z,61.41
2018-03-08T18:54:16.792Z,60.21
2018-03-08T18:56:46.159Z,60.08
2018-03-08T18:59:14.749Z,60.22
2018-03-08T19:01:43.340Z,61.24
2018-03-08T19:04:12.729Z,60.90
2018-03-08T19:06:41.282Z,61.23
2018-03-08T19:09:09.833Z,62.20
2018-03-08T19:11:39.348Z,62.29
2018-03-08T19:14:07.897Z,61.56
2018-03-08T19:16:36.464Z,61.37
2018-03-08T19:19:05.349Z,61.83
2018-03-08T19:21:33.909Z,61.24
2018-03-08T19:24:02.461Z,62.10
2018-03-08T19:26:31.824Z,62.33
2018-03-08T19:29:00.394Z,61.48
2018-03-08T19:31:28.942Z,63.10
2018-03-08T19:33:57.870Z,63.04
2018-03-08T19:36:26.417Z,63.30
2018-03-08T19:38:54.986Z,63.69
2018-03-08T19:41:24.498Z,63.77
2018-03-08T19:43:53.048Z,62.92
2018-03-08T19:46:21.597Z,62.47
2018-03-08T19:48:50.195Z,62.08
2018-03-08T19:51:18.744Z,61.33
2018-03-08T19:53:47.289Z,61.81
2018-03-08T19:56:16.657Z,61.62
2018-03-08T19:58:45.210Z,61.46
2018-03-08T20:01:13.761Z,61.81
2018-03-08T20:03:43.322Z,61.39
2018-03-08T20:06:11.873Z,60.38
2018-03-08T20:08:40.444Z,58.24
2018-03-08T20:11:09.818Z,58.55
2018-03-08T20:13:38.369Z,59.70
2018-03-08T20:16:06.955Z,59.02
2018-03-08T20:18:35.712Z,58.87
2018-03-08T20:21:04.272Z,57.03
2018-03-08T20:23:32.832Z,55.71
2018-03-08T20:26:02.293Z,55.89
2018-03-08T20:28:30.840Z,55.87
2018-03-08T20:30:59.392Z,56.40
2018-03-08T20:33:27.985Z,55.88
2018-03-08T20:35:57.298Z,56.21
2018-03-08T20:38:25.849Z,55.80
2018-03-08T20:40:54.611Z,54.65
2018-03-08T20:43:23.170Z,56.66
2018-03-08T20:45:51.778Z,57.67
2018-03-08T20:48:20.368Z,58.92
2018-03-08T20:50:48.912Z,58.29
2018-03-08T20:53:17.458Z,56.81
2018-03-08T20:55:47.044Z,56.71
2018-03-08T20:58:15.615Z,57.81
2018-03-08T21:00:44.189Z,58.51
2018-03-08T21:03:12.925Z,58.48
2018-03-08T21:05:41.474Z,57.96
2018-03-08T21:08:10.016Z,59.78
2018-03-08T21:10:38.612Z,59.40
2018-03-08T21:13:07.171Z,59.87
2018-03-08T21:15:35.729Z,59.41
2018-03-08T21:18:04.365Z,59.96
2018-03-08T21:20:32.913Z,60.88
2018-03-08T21:23:02.224Z,60.78
2018-03-08T21:25:31.688Z,60.92
2018-03-08T21:28:01.004Z,61.42
2018-03-08T21:30:29.561Z,61.74
2018-03-08T21:32:58.347Z,61.57
2018-03-08T21:35:26.893Z,62.13
2018-03-08T21:37:55.440Z,62.64
2018-03-08T21:40:24.043Z,61.89
2018-03-08T21:42:53.353Z,61.15
2018-03-08T21:45:21.906Z,61.05
2018-03-08T21:47:50.771Z,61.29
2018-03-08T21:50:20.086Z,61.12
2018-03-08T21:52:48.637Z,58.86
2018-03-08T21:55:17.232Z,58.62
2018-03-08T21:57:45.776Z,58.86
2018-03-08T22:00:14.325Z,61.99
2018-03-08T22:02:42.924Z,60.08
2018-03-08T22:05:12.240Z,59.13
2018-03-08T22:07:41.552Z,58.34
2018-03-08T22:10:10.248Z,57.13
2018-03-08T22:12:38.801Z,58.46
2018-03-08T22:15:08.111Z,58.35
2018-03-08T22:17:36.737Z,58.26
2018-03-08T22:20:05.325Z,57.53
2018-03-08T22:22:33.873Z,57.00
2018-03-08T22:25:02.472Z,57.08
2018-03-08T22:27:31.031Z,57.51
2018-03-08T22:29:59.620Z,59.25
2018-03-08T22:32:28.224Z,57.38
2018-03-08T22:34:56.776Z,57.94
2018-03-08T22:37:26.093Z,58.77
2018-03-08T22:39:54.702Z,58.11
2018-03-08T22:42:23.245Z,57.53
2018-03-08T22:44:51.793Z,56.82
2018-03-08T22:47:20.389Z,57.40
2018-03-08T22:49:49.708Z,57.09
2018-03-08T22:52:19.021Z,57.09
2018-03-08T22:54:47.889Z,58.17
2018-03-08T22:57:17.200Z,57.12
2018-03-08T22:59:46.513Z,55.77
2018-03-08T23:02:16.036Z,56.09
2018-03-08T23:04:44.593Z,56.69
2018-03-08T23:07:13.144Z,56.57
2018-03-08T23:09:41.833Z,57.77
2018-03-08T23:12:10.382Z,57.71
2018-03-08T23:14:38.924Z,58.66
2018-03-08T23:17:08.464Z,59.02
2018-03-08T23:19:37.010Z,58.26
2018-03-08T23:22:05.646Z,58.18
2018-03-08T23:24:34.620Z,59.26
2018-03-08T23:27:03.192Z,59.54
2018-03-08T23:29:31.736Z,59.26
2018-03-08T23:32:01.410Z,58.33
2018-03-08T23:34:29.957Z,60.99
2018-03-08T23:36:58.508Z,60.43
2018-03-08T23:39:27.104Z,60.11
2018-03-08T23:41:55.847Z,59.96
2018-03-08T23:44:24.400Z,60.17
2018-03-08T23:46:53.001Z,58.93
2018-03-08T23:49:21.548Z,60.47
2018-03-08T23:51:50.859Z,60.66
2018-03-08T23:54:19.445Z,59.55
2018-03-08T23:56:47.984Z,58.99
2018-03-08T23:59:16.537Z,59.10
